sensor_id;sensor_type;location;lat;lon;timestamp;temperature;humidity
16767;DHT22;8501;49.926;8.404;2022-07-03T00:01:11;22.50;99.90
16767;DHT22;8501;49.926;8.404;2022-07-03T00:03:37;22.50;99.90
16767;DHT22;8501;49.926;8.404;2022-07-03T00:06:03;22.40;99.90
16767;DHT22;8501;49.926;8.404;2022-07-03T00:08:28;22.40;99.90
16767;DHT22;8501;49.926;8.404;2022-07-03T00:10:54;22.30;99.90
16767;DHT22;8501;49.926;8.404;2022-07-03T00:13:21;22.30;99.90
16767;DHT22;8501;49.926;8.404;2022-07-03T00:15:47;22.30;99.90
16767;DHT22;8501;49.926;8.404;2022-07-03T00:18:12;22.30;99.90
16767;DHT22;8501;49.926;8.404;2022-07-03T00:20:43;22.20;99.90
16767;DHT22;8501;49.926;8.404;2022-07-03T00:23:10;22.20;99.90
16767;DHT22;8501;49.926;8.404;2022-07-03T00:25:40;22.20;99.90
16767;DHT22;8501;49.926;8.404;2022-07-03T00:28:08;22.20;99.90
16767;DHT22;8501;49.926;8.404;2022-07-03T00:30:34;22.10;99.90
16767;DHT22;8501;49.926;8.404;2022-07-03T00:33:02;22.10;99.90
16767;DHT22;8501;49.926;8.404;2022-07-03T00:35:31;22.10;99.90
16767;DHT22;8501;49.926;8.404;2022-07-03T00:37:57;22.00;99.90
16767;DHT22;8501;49.926;8.404;2022-07-03T00:40:23;22.00;99.90
16767;DHT22;8501;49.926;8.404;2022-07-03T00:42:50;22.00;99.90
16767;DHT22;8501;49.926;8.404;2022-07-03T00:45:20;22.00;99.90
16767;DHT22;8501;49.926;8.404;2022-07-03T00:47:46;22.00;99.90
16767;DHT22;8501;49.926;8.404;2022-07-03T00:50:12;22.00;99.90
16767;DHT22;8501;49.926;8.404;2022-07-03T00:52:38;22.00;99.90
16767;DHT22;8501;49.926;8.404;2022-07-03T00:55:10;22.00;99.90
16767;DHT22;8501;49.926;8.404;2022-07-03T00:57:45;21.90;99.90
16767;DHT22;8501;49.926;8.404;2022-07-03T01:00:11;21.90;99.90
16767;DHT22;8501;49.926;8.404;2022-07-03T01:11:21;21.70;99.90
16767;DHT22;8501;49.926;8.404;2022-07-03T01:17:18;21.70;99.90
16767;DHT22;8501;49.926;8.404;2022-07-03T01:19:42;21.60;99.90
16767;DHT22;8501;49.926;8.404;2022-07-03T01:30:22;21.50;99.90
16767;DHT22;8501;49.926;8.404;2022-07-03T01:32:57;21.40;99.90
16767;DHT22;8501;49.926;8.404;2022-07-03T01:35:35;21.40;99.90
16767;DHT22;8501;49.926;8.404;2022-07-03T01:38:05;21.40;99.90
16767;DHT22;8501;49.926;8.404;2022-07-03T01:40:33;21.30;99.90
16767;DHT22;8501;49.926;8.404;2022-07-03T01:42:59;21.30;99.90
16767;DHT22;8501;49.926;8.404;2022-07-03T01:45:27;21.20;99.90
16767;DHT22;8501;49.926;8.404;2022-07-03T01:47:57;21.10;99.90
16767;DHT22;8501;49.926;8.404;2022-07-03T01:50:23;21.10;99.90
16767;DHT22;8501;49.926;8.404;2022-07-03T01:52:50;21.10;99.90
16767;DHT22;8501;49.926;8.404;2022-07-03T01:55:17;21.00;99.90
16767;DHT22;8501;49.926;8.404;2022-07-03T01:57:48;21.00;99.90
16767;DHT22;8501;49.926;8.404;2022-07-03T02:00:17;21.00;99.90
16767;DHT22;8501;49.926;8.404;2022-07-03T02:02:50;21.00;99.90
16767;DHT22;8501;49.926;8.404;2022-07-03T02:10:42;21.00;99.90
16767;DHT22;8501;49.926;8.404;2022-07-03T02:13:23;20.90;99.90
16767;DHT22;8501;49.926;8.404;2022-07-03T02:15:50;20.80;99.90
16767;DHT22;8501;49.926;8.404;2022-07-03T02:20:52;20.60;99.90
16767;DHT22;8501;49.926;8.404;2022-07-03T02:23:22;20.70;99.90
16767;DHT22;8501;49.926;8.404;2022-07-03T02:25:51;20.70;99.90
16767;DHT22;8501;49.926;8.404;2022-07-03T02:31:04;20.60;99.90
16767;DHT22;8501;49.926;8.404;2022-07-03T02:33:30;20.60;99.90
16767;DHT22;8501;49.926;8.404;2022-07-03T02:35:57;20.50;99.90
16767;DHT22;8501;49.926;8.404;2022-07-03T02:38:24;20.50;99.90
16767;DHT22;8501;49.926;8.404;2022-07-03T02:41:20;20.50;99.90
16767;DHT22;8501;49.926;8.404;2022-07-03T02:43:58;20.50;99.90
16767;DHT22;8501;49.926;8.404;2022-07-03T02:46:37;20.40;99.90
16767;DHT22;8501;49.926;8.404;2022-07-03T02:52:02;20.20;99.90
16767;DHT22;8501;49.926;8.404;2022-07-03T02:54:41;20.20;99.90
16767;DHT22;8501;49.926;8.404;2022-07-03T02:57:08;20.20;99.90
16767;DHT22;8501;49.926;8.404;2022-07-03T03:04:34;20.20;99.90
16767;DHT22;8501;49.926;8.404;2022-07-03T03:07:12;20.20;99.90
16767;DHT22;8501;49.926;8.404;2022-07-03T03:09:41;20.20;99.90
16767;DHT22;8501;49.926;8.404;2022-07-03T03:12:08;20.10;99.90
16767;DHT22;8501;49.926;8.404;2022-07-03T03:14:42;20.10;99.90
16767;DHT22;8501;49.926;8.404;2022-07-03T03:17:17;20.10;99.90
16767;DHT22;8501;49.926;8.404;2022-07-03T03:19:46;20.00;99.90
16767;DHT22;8501;49.926;8.404;2022-07-03T03:24:56;20.00;99.90
16767;DHT22;8501;49.926;8.404;2022-07-03T03:27:22;19.90;99.90
16767;DHT22;8501;49.926;8.404;2022-07-03T03:29:48;19.90;99.90
16767;DHT22;8501;49.926;8.404;2022-07-03T03:32:16;19.80;99.90
16767;DHT22;8501;49.926;8.404;2022-07-03T03:34:42;19.90;99.90
16767;DHT22;8501;49.926;8.404;2022-07-03T03:37:08;19.90;99.90
16767;DHT22;8501;49.926;8.404;2022-07-03T03:39:34;19.90;99.90
16767;DHT22;8501;49.926;8.404;2022-07-03T03:41:59;20.00;99.90
16767;DHT22;8501;49.926;8.404;2022-07-03T03:44:29;19.90;99.90
16767;DHT22;8501;49.926;8.404;2022-07-03T03:46:55;19.90;99.90
16767;DHT22;8501;49.926;8.404;2022-07-03T03:49:20;19.90;99.90
16767;DHT22;8501;49.926;8.404;2022-07-03T03:51:46;20.00;99.90
16767;DHT22;8501;49.926;8.404;2022-07-03T03:54:12;19.90;99.90
16767;DHT22;8501;49.926;8.404;2022-07-03T03:56:37;19.80;99.90
16767;DHT22;8501;49.926;8.404;2022-07-03T03:59:03;19.70;99.90
16767;DHT22;8501;49.926;8.404;2022-07-03T04:01:28;19.70;99.90
16767;DHT22;8501;49.926;8.404;2022-07-03T04:03:54;19.80;99.90
16767;DHT22;8501;49.926;8.404;2022-07-03T04:06:20;19.80;99.90
16767;DHT22;8501;49.926;8.404;2022-07-03T04:08:45;19.70;99.90
16767;DHT22;8501;49.926;8.404;2022-07-03T04:11:11;19.70;99.90
16767;DHT22;8501;49.926;8.404;2022-07-03T04:13:36;19.60;99.90
16767;DHT22;8501;49.926;8.404;2022-07-03T04:16:02;19.60;99.90
16767;DHT22;8501;49.926;8.404;2022-07-03T04:18:28;19.60;99.90
16767;DHT22;8501;49.926;8.404;2022-07-03T04:20:53;19.50;99.90
16767;DHT22;8501;49.926;8.404;2022-07-03T04:23:19;19.50;99.90
16767;DHT22;8501;49.926;8.404;2022-07-03T04:25:45;19.50;99.90
16767;DHT22;8501;49.926;8.404;2022-07-03T04:28:10;19.50;99.90
16767;DHT22;8501;49.926;8.404;2022-07-03T04:30:36;19.60;99.90
16767;DHT22;8501;49.926;8.404;2022-07-03T04:33:02;19.60;99.90
16767;DHT22;8501;49.926;8.404;2022-07-03T04:35:27;19.60;99.90
16767;DHT22;8501;49.926;8.404;2022-07-03T04:37:53;19.60;99.90
16767;DHT22;8501;49.926;8.404;2022-07-03T04:40:19;19.50;99.90
16767;DHT22;8501;49.926;8.404;2022-07-03T04:42:44;19.60;99.90
16767;DHT22;8501;49.926;8.404;2022-07-03T04:45:10;19.60;99.90
16767;DHT22;8501;49.926;8.404;2022-07-03T04:47:35;19.50;99.90
16767;DHT22;8501;49.926;8.404;2022-07-03T04:50:01;19.60;99.90
16767;DHT22;8501;49.926;8.404;2022-07-03T04:52:27;19.60;99.90
16767;DHT22;8501;49.926;8.404;2022-07-03T04:54:52;19.70;99.90
16767;DHT22;8501;49.926;8.404;2022-07-03T04:57:18;19.70;99.90
16767;DHT22;8501;49.926;8.404;2022-07-03T04:59:43;19.70;99.90
16767;DHT22;8501;49.926;8.404;2022-07-03T05:02:09;19.70;99.90
16767;DHT22;8501;49.926;8.404;2022-07-03T05:04:35;19.70;99.90
16767;DHT22;8501;49.926;8.404;2022-07-03T05:07:00;19.70;99.90
16767;DHT22;8501;49.926;8.404;2022-07-03T05:09:26;19.70;99.90
16767;DHT22;8501;49.926;8.404;2022-07-03T05:11:51;19.70;99.90
16767;DHT22;8501;49.926;8.404;2022-07-03T05:14:17;19.70;99.90
16767;DHT22;8501;49.926;8.404;2022-07-03T05:16:43;19.80;99.90
16767;DHT22;8501;49.926;8.404;2022-07-03T05:19:08;19.80;99.90
16767;DHT22;8501;49.926;8.404;2022-07-03T05:21:34;20.00;99.90
16767;DHT22;8501;49.926;8.404;2022-07-03T05:23:59;19.90;99.90
16767;DHT22;8501;49.926;8.404;2022-07-03T05:26:25;19.90;99.90
16767;DHT22;8501;49.926;8.404;2022-07-03T05:28:50;19.90;99.90
16767;DHT22;8501;49.926;8.404;2022-07-03T05:31:16;19.90;99.90
16767;DHT22;8501;49.926;8.404;2022-07-03T05:33:41;20.00;99.90
16767;DHT22;8501;49.926;8.404;2022-07-03T05:36:07;20.00;99.90
16767;DHT22;8501;49.926;8.404;2022-07-03T05:38:33;20.10;99.90
16767;DHT22;8501;49.926;8.404;2022-07-03T05:41:17;20.10;99.90
16767;DHT22;8501;49.926;8.404;2022-07-03T05:43:44;20.10;99.90
16767;DHT22;8501;49.926;8.404;2022-07-03T05:46:09;20.10;99.90
16767;DHT22;8501;49.926;8.404;2022-07-03T05:48:35;20.10;99.90
16767;DHT22;8501;49.926;8.404;2022-07-03T05:51:01;20.20;99.90
16767;DHT22;8501;49.926;8.404;2022-07-03T05:53:27;20.20;99.90
16767;DHT22;8501;49.926;8.404;2022-07-03T05:55:52;20.20;99.90
16767;DHT22;8501;49.926;8.404;2022-07-03T05:58:18;20.20;99.90
16767;DHT22;8501;49.926;8.404;2022-07-03T06:00:43;20.30;99.90
16767;DHT22;8501;49.926;8.404;2022-07-03T06:03:09;20.30;99.90
16767;DHT22;8501;49.926;8.404;2022-07-03T06:05:35;20.40;99.90
16767;DHT22;8501;49.926;8.404;2022-07-03T06:08:01;20.40;99.90
16767;DHT22;8501;49.926;8.404;2022-07-03T06:10:27;20.50;99.90
16767;DHT22;8501;49.926;8.404;2022-07-03T06:12:53;20.60;99.90
16767;DHT22;8501;49.926;8.404;2022-07-03T06:15:19;20.60;99.90
16767;DHT22;8501;49.926;8.404;2022-07-03T06:17:44;20.60;99.90
16767;DHT22;8501;49.926;8.404;2022-07-03T06:20:11;20.60;99.90
16767;DHT22;8501;49.926;8.404;2022-07-03T06:22:37;20.70;99.90
16767;DHT22;8501;49.926;8.404;2022-07-03T06:25:03;20.80;99.90
16767;DHT22;8501;49.926;8.404;2022-07-03T06:27:29;20.80;99.90
16767;DHT22;8501;49.926;8.404;2022-07-03T06:29:55;20.80;99.90
16767;DHT22;8501;49.926;8.404;2022-07-03T06:32:21;20.90;99.90
16767;DHT22;8501;49.926;8.404;2022-07-03T06:34:47;20.90;99.90
16767;DHT22;8501;49.926;8.404;2022-07-03T06:37:12;21.00;99.90
16767;DHT22;8501;49.926;8.404;2022-07-03T06:39:38;21.00;99.90
16767;DHT22;8501;49.926;8.404;2022-07-03T06:42:04;21.10;99.90
16767;DHT22;8501;49.926;8.404;2022-07-03T06:44:30;21.10;99.90
16767;DHT22;8501;49.926;8.404;2022-07-03T06:46:56;21.20;99.90
16767;DHT22;8501;49.926;8.404;2022-07-03T06:49:22;21.20;99.90
16767;DHT22;8501;49.926;8.404;2022-07-03T06:51:48;21.30;99.90
16767;DHT22;8501;49.926;8.404;2022-07-03T06:54:14;21.30;99.90
16767;DHT22;8501;49.926;8.404;2022-07-03T06:56:39;21.40;99.90
16767;DHT22;8501;49.926;8.404;2022-07-03T06:59:05;21.40;99.90
16767;DHT22;8501;49.926;8.404;2022-07-03T07:01:30;21.40;99.90
16767;DHT22;8501;49.926;8.404;2022-07-03T07:03:56;21.50;99.90
16767;DHT22;8501;49.926;8.404;2022-07-03T07:06:22;21.50;99.90
16767;DHT22;8501;49.926;8.404;2022-07-03T07:08:48;21.60;99.90
16767;DHT22;8501;49.926;8.404;2022-07-03T07:11:14;21.60;99.90
16767;DHT22;8501;49.926;8.404;2022-07-03T07:13:40;21.60;99.90
16767;DHT22;8501;49.926;8.404;2022-07-03T07:16:06;21.70;99.90
16767;DHT22;8501;49.926;8.404;2022-07-03T07:18:31;21.70;99.90
16767;DHT22;8501;49.926;8.404;2022-07-03T07:20:57;21.70;99.90
16767;DHT22;8501;49.926;8.404;2022-07-03T07:23:23;21.80;99.90
16767;DHT22;8501;49.926;8.404;2022-07-03T07:25:48;21.80;99.90
16767;DHT22;8501;49.926;8.404;2022-07-03T07:28:14;21.90;99.90
16767;DHT22;8501;49.926;8.404;2022-07-03T07:30:39;21.90;99.90
16767;DHT22;8501;49.926;8.404;2022-07-03T07:33:06;22.00;99.90
16767;DHT22;8501;49.926;8.404;2022-07-03T07:35:32;22.10;99.90
16767;DHT22;8501;49.926;8.404;2022-07-03T07:37:57;22.10;99.90
16767;DHT22;8501;49.926;8.404;2022-07-03T07:40:23;22.20;99.90
16767;DHT22;8501;49.926;8.404;2022-07-03T07:42:48;22.30;99.90
16767;DHT22;8501;49.926;8.404;2022-07-03T07:45:14;22.40;99.90
16767;DHT22;8501;49.926;8.404;2022-07-03T07:47:39;22.40;99.90
16767;DHT22;8501;49.926;8.404;2022-07-03T07:50:06;22.50;99.90
16767;DHT22;8501;49.926;8.404;2022-07-03T07:52:31;22.50;99.90
16767;DHT22;8501;49.926;8.404;2022-07-03T07:54:57;22.60;99.90
16767;DHT22;8501;49.926;8.404;2022-07-03T07:57:22;22.60;99.90
16767;DHT22;8501;49.926;8.404;2022-07-03T07:59:48;22.70;99.90
16767;DHT22;8501;49.926;8.404;2022-07-03T08:02:13;22.80;99.90
16767;DHT22;8501;49.926;8.404;2022-07-03T08:04:58;22.90;99.90
16767;DHT22;8501;49.926;8.404;2022-07-03T08:07:42;22.90;99.90
16767;DHT22;8501;49.926;8.404;2022-07-03T08:10:08;23.00;99.90
16767;DHT22;8501;49.926;8.404;2022-07-03T08:12:33;23.10;99.90
16767;DHT22;8501;49.926;8.404;2022-07-03T08:14:59;23.20;99.90
16767;DHT22;8501;49.926;8.404;2022-07-03T08:17:24;23.20;99.90
16767;DHT22;8501;49.926;8.404;2022-07-03T08:19:50;23.20;99.90
16767;DHT22;8501;49.926;8.404;2022-07-03T08:22:15;23.30;99.90
16767;DHT22;8501;49.926;8.404;2022-07-03T08:24:41;23.40;99.90
16767;DHT22;8501;49.926;8.404;2022-07-03T08:27:06;23.40;99.90
16767;DHT22;8501;49.926;8.404;2022-07-03T08:29:32;23.50;99.90
16767;DHT22;8501;49.926;8.404;2022-07-03T08:31:57;23.60;99.90
16767;DHT22;8501;49.926;8.404;2022-07-03T08:34:23;23.60;99.90
16767;DHT22;8501;49.926;8.404;2022-07-03T08:36:49;23.70;99.90
16767;DHT22;8501;49.926;8.404;2022-07-03T08:39:15;23.80;99.90
16767;DHT22;8501;49.926;8.404;2022-07-03T08:41:41;23.80;99.90
16767;DHT22;8501;49.926;8.404;2022-07-03T08:44:11;23.80;99.90
16767;DHT22;8501;49.926;8.404;2022-07-03T08:46:39;23.90;99.90
16767;DHT22;8501;49.926;8.404;2022-07-03T08:49:06;23.90;99.90
16767;DHT22;8501;49.926;8.404;2022-07-03T08:51:32;24.00;99.90
16767;DHT22;8501;49.926;8.404;2022-07-03T08:53:59;24.20;99.90
16767;DHT22;8501;49.926;8.404;2022-07-03T08:56:27;24.20;99.90
16767;DHT22;8501;49.926;8.404;2022-07-03T08:58:52;24.30;99.90
16767;DHT22;8501;49.926;8.404;2022-07-03T09:01:18;24.40;99.90
16767;DHT22;8501;49.926;8.404;2022-07-03T09:03:45;24.50;99.90
16767;DHT22;8501;49.926;8.404;2022-07-03T09:06:12;24.50;99.90
16767;DHT22;8501;49.926;8.404;2022-07-03T09:08:38;24.50;99.90
16767;DHT22;8501;49.926;8.404;2022-07-03T09:11:05;24.50;99.90
16767;DHT22;8501;49.926;8.404;2022-07-03T09:13:31;24.60;99.90
16767;DHT22;8501;49.926;8.404;2022-07-03T09:15:56;24.60;99.90
16767;DHT22;8501;49.926;8.404;2022-07-03T09:18:42;24.70;99.90
16767;DHT22;8501;49.926;8.404;2022-07-03T09:21:08;24.80;99.90
16767;DHT22;8501;49.926;8.404;2022-07-03T09:23:38;24.80;99.90
16767;DHT22;8501;49.926;8.404;2022-07-03T09:26:05;25.00;99.90
16767;DHT22;8501;49.926;8.404;2022-07-03T09:31:11;25.10;99.90
16767;DHT22;8501;49.926;8.404;2022-07-03T09:36:16;25.20;99.90
16767;DHT22;8501;49.926;8.404;2022-07-03T09:38:45;25.30;99.90
16767;DHT22;8501;49.926;8.404;2022-07-03T09:41:11;25.30;99.90
16767;DHT22;8501;49.926;8.404;2022-07-03T09:43:41;25.50;99.90
16767;DHT22;8501;49.926;8.404;2022-07-03T09:46:07;25.50;99.90
16767;DHT22;8501;49.926;8.404;2022-07-03T09:48:51;25.60;99.90
16767;DHT22;8501;49.926;8.404;2022-07-03T09:51:21;25.70;99.90
16767;DHT22;8501;49.926;8.404;2022-07-03T09:53:58;25.80;99.90
16767;DHT22;8501;49.926;8.404;2022-07-03T10:01:34;25.90;99.90
16767;DHT22;8501;49.926;8.404;2022-07-03T10:06:56;26.00;99.90
16767;DHT22;8501;49.926;8.404;2022-07-03T10:09:33;26.10;99.90
16767;DHT22;8501;49.926;8.404;2022-07-03T10:12:02;26.10;99.90
16767;DHT22;8501;49.926;8.404;2022-07-03T10:14:30;26.20;99.90
16767;DHT22;8501;49.926;8.404;2022-07-03T10:16:57;26.20;99.90
16767;DHT22;8501;49.926;8.404;2022-07-03T10:19:27;26.20;99.90
16767;DHT22;8501;49.926;8.404;2022-07-03T10:22:02;26.20;99.90
16767;DHT22;8501;49.926;8.404;2022-07-03T10:24:32;26.30;99.90
16767;DHT22;8501;49.926;8.404;2022-07-03T10:26:58;26.40;99.90
16767;DHT22;8501;49.926;8.404;2022-07-03T10:29:26;26.50;99.90
16767;DHT22;8501;49.926;8.404;2022-07-03T10:31:52;26.60;99.90
16767;DHT22;8501;49.926;8.404;2022-07-03T10:34:22;26.60;99.90
16767;DHT22;8501;49.926;8.404;2022-07-03T10:36:57;26.60;99.90
16767;DHT22;8501;49.926;8.404;2022-07-03T10:39:51;26.60;99.90
16767;DHT22;8501;49.926;8.404;2022-07-03T10:42:31;26.70;99.90
16767;DHT22;8501;49.926;8.404;2022-07-03T10:45:17;26.80;99.90
16767;DHT22;8501;49.926;8.404;2022-07-03T10:47:48;26.90;99.90
16767;DHT22;8501;49.926;8.404;2022-07-03T10:50:16;27.00;99.90
16767;DHT22;8501;49.926;8.404;2022-07-03T10:52:42;27.10;99.90
16767;DHT22;8501;49.926;8.404;2022-07-03T10:55:09;27.10;99.90
16767;DHT22;8501;49.926;8.404;2022-07-03T10:57:36;27.10;99.90
16767;DHT22;8501;49.926;8.404;2022-07-03T11:00:05;27.20;99.90
16767;DHT22;8501;49.926;8.404;2022-07-03T11:02:49;27.20;99.90
16767;DHT22;8501;49.926;8.404;2022-07-03T11:05:17;27.30;99.90
16767;DHT22;8501;49.926;8.404;2022-07-03T11:08:02;27.30;99.90
16767;DHT22;8501;49.926;8.404;2022-07-03T11:10:30;27.40;99.50
16767;DHT22;8501;49.926;8.404;2022-07-03T11:20:36;27.50;98.30
16767;DHT22;8501;49.926;8.404;2022-07-03T11:25:57;27.60;99.40
16767;DHT22;8501;49.926;8.404;2022-07-03T11:36:29;27.80;97.30
16767;DHT22;8501;49.926;8.404;2022-07-03T11:41:21;27.90;96.50
16767;DHT22;8501;49.926;8.404;2022-07-03T11:43:50;27.90;96.60
16767;DHT22;8501;49.926;8.404;2022-07-03T11:46:18;28.00;96.40
16767;DHT22;8501;49.926;8.404;2022-07-03T11:48:44;28.10;96.60
16767;DHT22;8501;49.926;8.404;2022-07-03T11:51:09;28.20;96.60
16767;DHT22;8501;49.926;8.404;2022-07-03T11:53:37;28.20;95.50
16767;DHT22;8501;49.926;8.404;2022-07-03T11:56:05;28.20;95.70
16767;DHT22;8501;49.926;8.404;2022-07-03T12:04:07;28.50;95.00
16767;DHT22;8501;49.926;8.404;2022-07-03T12:06:38;28.60;94.50
16767;DHT22;8501;49.926;8.404;2022-07-03T12:11:58;28.40;94.40
16767;DHT22;8501;49.926;8.404;2022-07-03T12:14:56;28.50;94.80
16767;DHT22;8501;49.926;8.404;2022-07-03T12:17:24;28.70;95.00
16767;DHT22;8501;49.926;8.404;2022-07-03T12:20:00;28.70;94.30
16767;DHT22;8501;49.926;8.404;2022-07-03T12:22:33;28.80;94.40
16767;DHT22;8501;49.926;8.404;2022-07-03T12:25:05;28.90;93.60
16767;DHT22;8501;49.926;8.404;2022-07-03T12:27:37;28.90;94.00
16767;DHT22;8501;49.926;8.404;2022-07-03T12:30:03;28.90;94.60
16767;DHT22;8501;49.926;8.404;2022-07-03T12:32:29;29.00;94.80
16767;DHT22;8501;49.926;8.404;2022-07-03T12:34:55;29.00;93.80
16767;DHT22;8501;49.926;8.404;2022-07-03T12:37:39;29.10;94.00
16767;DHT22;8501;49.926;8.404;2022-07-03T12:40:10;29.10;94.30
16767;DHT22;8501;49.926;8.404;2022-07-03T12:42:43;29.20;94.00
16767;DHT22;8501;49.926;8.404;2022-07-03T12:45:12;29.20;93.60
16767;DHT22;8501;49.926;8.404;2022-07-03T12:47:39;29.20;93.90
16767;DHT22;8501;49.926;8.404;2022-07-03T12:50:06;29.40;94.40
16767;DHT22;8501;49.926;8.404;2022-07-03T12:52:33;29.60;92.60
16767;DHT22;8501;49.926;8.404;2022-07-03T12:55:01;29.50;93.10
16767;DHT22;8501;49.926;8.404;2022-07-03T12:57:27;29.40;91.60
16767;DHT22;8501;49.926;8.404;2022-07-03T13:00:16;29.30;91.50
16767;DHT22;8501;49.926;8.404;2022-07-03T13:02:44;29.40;90.90
16767;DHT22;8501;49.926;8.404;2022-07-03T13:05:23;29.50;90.40
16767;DHT22;8501;49.926;8.404;2022-07-03T13:07:51;29.50;91.10
16767;DHT22;8501;49.926;8.404;2022-07-03T13:10:19;29.50;91.60
16767;DHT22;8501;49.926;8.404;2022-07-03T13:12:56;29.50;90.00
16767;DHT22;8501;49.926;8.404;2022-07-03T13:15:29;29.50;89.70
16767;DHT22;8501;49.926;8.404;2022-07-03T13:22:54;29.80;89.10
16767;DHT22;8501;49.926;8.404;2022-07-03T13:25:21;29.90;89.00
16767;DHT22;8501;49.926;8.404;2022-07-03T13:27:47;29.90;90.30
16767;DHT22;8501;49.926;8.404;2022-07-03T13:30:18;29.80;89.90
16767;DHT22;8501;49.926;8.404;2022-07-03T13:32:44;29.90;89.60
16767;DHT22;8501;49.926;8.404;2022-07-03T13:35:10;30.10;88.60
16767;DHT22;8501;49.926;8.404;2022-07-03T13:37:36;30.20;86.70
16767;DHT22;8501;49.926;8.404;2022-07-03T13:40:03;30.40;86.70
16767;DHT22;8501;49.926;8.404;2022-07-03T13:42:29;30.50;87.10
16767;DHT22;8501;49.926;8.404;2022-07-03T13:44:54;30.50;84.40
16767;DHT22;8501;49.926;8.404;2022-07-03T13:47:20;30.60;84.80
16767;DHT22;8501;49.926;8.404;2022-07-03T13:49:46;30.60;84.90
16767;DHT22;8501;49.926;8.404;2022-07-03T13:52:12;30.70;82.50
16767;DHT22;8501;49.926;8.404;2022-07-03T13:54:37;30.80;80.60
16767;DHT22;8501;49.926;8.404;2022-07-03T13:57:03;30.80;80.30
16767;DHT22;8501;49.926;8.404;2022-07-03T13:59:29;30.90;79.20
16767;DHT22;8501;49.926;8.404;2022-07-03T14:01:59;31.10;80.90
16767;DHT22;8501;49.926;8.404;2022-07-03T14:04:25;31.20;79.80
16767;DHT22;8501;49.926;8.404;2022-07-03T14:06:51;31.30;78.70
16767;DHT22;8501;49.926;8.404;2022-07-03T14:09:17;31.30;74.50
16767;DHT22;8501;49.926;8.404;2022-07-03T14:11:42;31.30;75.80
16767;DHT22;8501;49.926;8.404;2022-07-03T14:14:08;31.30;75.80
16767;DHT22;8501;49.926;8.404;2022-07-03T14:16:34;31.50;77.60
16767;DHT22;8501;49.926;8.404;2022-07-03T14:18:59;31.60;76.40
16767;DHT22;8501;49.926;8.404;2022-07-03T14:21:25;31.60;74.20
16767;DHT22;8501;49.926;8.404;2022-07-03T14:23:51;31.70;74.40
16767;DHT22;8501;49.926;8.404;2022-07-03T14:26:17;31.90;74.20
16767;DHT22;8501;49.926;8.404;2022-07-03T14:29:02;32.00;74.00
16767;DHT22;8501;49.926;8.404;2022-07-03T14:31:47;32.00;73.00
16767;DHT22;8501;49.926;8.404;2022-07-03T14:34:31;32.20;72.10
16767;DHT22;8501;49.926;8.404;2022-07-03T14:36:56;32.20;70.60
16767;DHT22;8501;49.926;8.404;2022-07-03T14:39:22;32.20;68.50
16767;DHT22;8501;49.926;8.404;2022-07-03T14:41:47;32.30;68.20
16767;DHT22;8501;49.926;8.404;2022-07-03T14:44:14;32.30;69.00
16767;DHT22;8501;49.926;8.404;2022-07-03T14:46:40;32.40;69.20
16767;DHT22;8501;49.926;8.404;2022-07-03T14:49:06;32.50;68.30
16767;DHT22;8501;49.926;8.404;2022-07-03T14:51:31;32.60;67.00
16767;DHT22;8501;49.926;8.404;2022-07-03T14:53:57;32.60;68.20
16767;DHT22;8501;49.926;8.404;2022-07-03T14:56:22;32.90;69.20
16767;DHT22;8501;49.926;8.404;2022-07-03T14:58:49;33.10;65.90
16767;DHT22;8501;49.926;8.404;2022-07-03T15:01:18;33.30;67.20
16767;DHT22;8501;49.926;8.404;2022-07-03T15:03:58;33.50;67.80
16767;DHT22;8501;49.926;8.404;2022-07-03T15:06:26;33.60;66.80
16767;DHT22;8501;49.926;8.404;2022-07-03T15:11:33;33.80;65.50
16767;DHT22;8501;49.926;8.404;2022-07-03T15:14:20;33.80;63.90
16767;DHT22;8501;49.926;8.404;2022-07-03T15:16:47;33.90;64.10
16767;DHT22;8501;49.926;8.404;2022-07-03T15:19:16;33.90;62.90
16767;DHT22;8501;49.926;8.404;2022-07-03T15:21:42;34.00;62.70
16767;DHT22;8501;49.926;8.404;2022-07-03T15:24:09;34.10;62.90
16767;DHT22;8501;49.926;8.404;2022-07-03T15:26:37;34.10;62.00
16767;DHT22;8501;49.926;8.404;2022-07-03T15:29:04;34.10;64.10
16767;DHT22;8501;49.926;8.404;2022-07-03T15:31:35;34.20;63.00
16767;DHT22;8501;49.926;8.404;2022-07-03T15:34:05;34.10;60.80
16767;DHT22;8501;49.926;8.404;2022-07-03T15:36:49;34.20;61.50
16767;DHT22;8501;49.926;8.404;2022-07-03T15:39:27;34.30;61.80
16767;DHT22;8501;49.926;8.404;2022-07-03T15:42:20;34.20;61.40
16767;DHT22;8501;49.926;8.404;2022-07-03T15:48:07;33.90;60.70
16767;DHT22;8501;49.926;8.404;2022-07-03T15:50:55;33.80;60.10
16767;DHT22;8501;49.926;8.404;2022-07-03T15:53:28;33.70;61.60
16767;DHT22;8501;49.926;8.404;2022-07-03T15:55:56;33.50;62.20
16767;DHT22;8501;49.926;8.404;2022-07-03T15:58:31;33.20;62.50
16767;DHT22;8501;49.926;8.404;2022-07-03T16:01:01;33.00;62.30
16767;DHT22;8501;49.926;8.404;2022-07-03T16:04:02;32.60;60.90
16767;DHT22;8501;49.926;8.404;2022-07-03T16:06:29;32.20;61.70
16767;DHT22;8501;49.926;8.404;2022-07-03T16:08:55;32.10;62.90
16767;DHT22;8501;49.926;8.404;2022-07-03T16:11:21;31.90;63.10
16767;DHT22;8501;49.926;8.404;2022-07-03T16:13:48;31.90;64.60
16767;DHT22;8501;49.926;8.404;2022-07-03T16:16:16;31.80;64.20
16767;DHT22;8501;49.926;8.404;2022-07-03T16:18:43;31.70;64.40
16767;DHT22;8501;49.926;8.404;2022-07-03T16:21:10;31.60;65.20
16767;DHT22;8501;49.926;8.404;2022-07-03T16:23:37;31.60;64.70
16767;DHT22;8501;49.926;8.404;2022-07-03T16:26:04;31.40;64.90
16767;DHT22;8501;49.926;8.404;2022-07-03T16:28:32;31.40;64.70
16767;DHT22;8501;49.926;8.404;2022-07-03T16:31:00;31.30;65.60
16767;DHT22;8501;49.926;8.404;2022-07-03T16:33:28;31.30;65.20
16767;DHT22;8501;49.926;8.404;2022-07-03T16:36:03;31.20;64.90
16767;DHT22;8501;49.926;8.404;2022-07-03T16:38:35;31.10;65.40
16767;DHT22;8501;49.926;8.404;2022-07-03T16:41:04;31.00;64.30
16767;DHT22;8501;49.926;8.404;2022-07-03T16:43:31;31.00;63.70
16767;DHT22;8501;49.926;8.404;2022-07-03T16:45:58;30.90;65.10
16767;DHT22;8501;49.926;8.404;2022-07-03T16:48:28;30.90;65.40
16767;DHT22;8501;49.926;8.404;2022-07-03T16:50:59;30.90;65.60
16767;DHT22;8501;49.926;8.404;2022-07-03T16:53:30;30.90;66.50
16767;DHT22;8501;49.926;8.404;2022-07-03T16:55:57;30.80;65.20
16767;DHT22;8501;49.926;8.404;2022-07-03T16:58:23;30.80;66.30
16767;DHT22;8501;49.926;8.404;2022-07-03T17:00:50;30.80;66.40
16767;DHT22;8501;49.926;8.404;2022-07-03T17:03:18;30.80;66.90
16767;DHT22;8501;49.926;8.404;2022-07-03T17:05:46;30.80;67.90
16767;DHT22;8501;49.926;8.404;2022-07-03T17:08:17;30.90;69.00
16767;DHT22;8501;49.926;8.404;2022-07-03T17:10:45;30.90;67.00
16767;DHT22;8501;49.926;8.404;2022-07-03T17:13:11;30.80;66.60
16767;DHT22;8501;49.926;8.404;2022-07-03T17:15:36;30.80;66.90
16767;DHT22;8501;49.926;8.404;2022-07-03T17:18:04;30.70;67.40
16767;DHT22;8501;49.926;8.404;2022-07-03T17:20:33;30.70;68.20
16767;DHT22;8501;49.926;8.404;2022-07-03T17:23:15;30.70;68.10
16767;DHT22;8501;49.926;8.404;2022-07-03T17:28:11;30.60;66.90
16767;DHT22;8501;49.926;8.404;2022-07-03T17:30:45;30.50;67.10